sensor_id;sensor_type;location;lat;lon;timestamp;temperature;humidity
54190;DHT22;40340;53.208;6.582;2022-08-20T00:02:24;19.90;99.90
54190;DHT22;40340;53.208;6.582;2022-08-20T00:04:50;19.90;99.90
54190;DHT22;40340;53.208;6.582;2022-08-20T00:07:15;19.90;99.90
54190;DHT22;40340;53.208;6.582;2022-08-20T00:09:41;19.90;99.90
54190;DHT22;40340;53.208;6.582;2022-08-20T00:12:09;19.80;99.90
54190;DHT22;40340;53.208;6.582;2022-08-20T00:14:35;19.80;99.90
54190;DHT22;40340;53.208;6.582;2022-08-20T00:17:01;19.80;99.90
54190;DHT22;40340;53.208;6.582;2022-08-20T00:19:26;19.80;99.90
54190;DHT22;40340;53.208;6.582;2022-08-20T00:21:52;19.80;99.90
54190;DHT22;40340;53.208;6.582;2022-08-20T00:24:17;19.80;99.90
54190;DHT22;40340;53.208;6.582;2022-08-20T00:26:43;19.80;99.90
54190;DHT22;40340;53.208;6.582;2022-08-20T00:29:09;19.80;99.90
54190;DHT22;40340;53.208;6.582;2022-08-20T00:31:34;19.80;99.90
54190;DHT22;40340;53.208;6.582;2022-08-20T00:34:00;19.80;99.90
54190;DHT22;40340;53.208;6.582;2022-08-20T00:36:26;19.80;99.90
54190;DHT22;40340;53.208;6.582;2022-08-20T00:38:51;19.80;99.90
54190;DHT22;40340;53.208;6.582;2022-08-20T00:41:24;19.80;99.90
54190;DHT22;40340;53.208;6.582;2022-08-20T00:44:09;19.80;99.90
54190;DHT22;40340;53.208;6.582;2022-08-20T00:46:35;19.80;99.90
54190;DHT22;40340;53.208;6.582;2022-08-20T00:49:03;19.80;99.90
54190;DHT22;40340;53.208;6.582;2022-08-20T00:51:39;19.80;99.90
54190;DHT22;40340;53.208;6.582;2022-08-20T00:54:21;19.80;99.90
54190;DHT22;40340;53.208;6.582;2022-08-20T00:57:07;19.80;99.90
54190;DHT22;40340;53.208;6.582;2022-08-20T00:59:35;19.80;99.90
54190;DHT22;40340;53.208;6.582;2022-08-20T01:02:05;19.70;99.90
54190;DHT22;40340;53.208;6.582;2022-08-20T01:04:33;19.70;99.90
54190;DHT22;40340;53.208;6.582;2022-08-20T01:07:00;19.60;99.90
54190;DHT22;40340;53.208;6.582;2022-08-20T01:09:27;19.60;99.90
54190;DHT22;40340;53.208;6.582;2022-08-20T01:11:53;19.60;99.90
54190;DHT22;40340;53.208;6.582;2022-08-20T01:14:20;19.60;99.90
54190;DHT22;40340;53.208;6.582;2022-08-20T01:16:50;19.60;99.90
54190;DHT22;40340;53.208;6.582;2022-08-20T01:19:22;19.60;99.90
54190;DHT22;40340;53.208;6.582;2022-08-20T01:21:49;19.50;99.90
54190;DHT22;40340;53.208;6.582;2022-08-20T01:24:27;19.50;99.90
54190;DHT22;40340;53.208;6.582;2022-08-20T01:26:55;19.60;99.90
54190;DHT22;40340;53.208;6.582;2022-08-20T01:29:28;19.40;99.90
54190;DHT22;40340;53.208;6.582;2022-08-20T01:31:58;19.30;99.90
54190;DHT22;40340;53.208;6.582;2022-08-20T01:34:26;19.30;99.90
54190;DHT22;40340;53.208;6.582;2022-08-20T01:36:54;19.30;99.90
54190;DHT22;40340;53.208;6.582;2022-08-20T01:39:27;19.30;99.90
54190;DHT22;40340;53.208;6.582;2022-08-20T01:42:13;19.30;99.90
54190;DHT22;40340;53.208;6.582;2022-08-20T01:44:43;19.20;99.90
54190;DHT22;40340;53.208;6.582;2022-08-20T01:47:20;19.20;99.90
54190;DHT22;40340;53.208;6.582;2022-08-20T01:49:58;19.20;99.90
54190;DHT22;40340;53.208;6.582;2022-08-20T01:52:35;19.10;99.90
54190;DHT22;40340;53.208;6.582;2022-08-20T01:55:06;19.10;99.90
54190;DHT22;40340;53.208;6.582;2022-08-20T01:57:33;19.10;99.90
54190;DHT22;40340;53.208;6.582;2022-08-20T02:00:00;19.00;99.90
54190;DHT22;40340;53.208;6.582;2022-08-20T02:02:27;19.10;99.90
54190;DHT22;40340;53.208;6.582;2022-08-20T02:04:53;19.00;99.90
54190;DHT22;40340;53.208;6.582;2022-08-20T02:07:21;18.90;99.90
54190;DHT22;40340;53.208;6.582;2022-08-20T02:09:47;19.00;99.90
54190;DHT22;40340;53.208;6.582;2022-08-20T02:12:14;18.80;99.90
54190;DHT22;40340;53.208;6.582;2022-08-20T02:14:45;18.90;99.90
54190;DHT22;40340;53.208;6.582;2022-08-20T02:17:13;18.80;99.90
54190;DHT22;40340;53.208;6.582;2022-08-20T02:19:41;18.80;99.90
54190;DHT22;40340;53.208;6.582;2022-08-20T02:24:45;18.80;99.90
54190;DHT22;40340;53.208;6.582;2022-08-20T02:27:11;18.70;99.90
54190;DHT22;40340;53.208;6.582;2022-08-20T02:29:37;18.70;99.90
54190;DHT22;40340;53.208;6.582;2022-08-20T02:32:04;18.70;99.90
54190;DHT22;40340;53.208;6.582;2022-08-20T02:34:31;18.70;99.90
54190;DHT22;40340;53.208;6.582;2022-08-20T02:36:59;18.70;99.90
54190;DHT22;40340;53.208;6.582;2022-08-20T02:39:25;18.60;99.90
54190;DHT22;40340;53.208;6.582;2022-08-20T02:41:52;18.60;99.90
54190;DHT22;40340;53.208;6.582;2022-08-20T02:44:17;18.60;99.90
54190;DHT22;40340;53.208;6.582;2022-08-20T02:46:46;18.70;99.90
54190;DHT22;40340;53.208;6.582;2022-08-20T02:49:12;18.60;99.90
54190;DHT22;40340;53.208;6.582;2022-08-20T02:51:38;18.50;99.90
54190;DHT22;40340;53.208;6.582;2022-08-20T02:54:03;18.50;99.90
54190;DHT22;40340;53.208;6.582;2022-08-20T02:56:29;18.40;99.90
54190;DHT22;40340;53.208;6.582;2022-08-20T02:58:54;18.40;99.90
54190;DHT22;40340;53.208;6.582;2022-08-20T03:01:20;18.30;99.90
54190;DHT22;40340;53.208;6.582;2022-08-20T03:03:46;18.30;99.90
54190;DHT22;40340;53.208;6.582;2022-08-20T03:06:12;18.30;99.90
54190;DHT22;40340;53.208;6.582;2022-08-20T03:08:38;18.20;99.90
54190;DHT22;40340;53.208;6.582;2022-08-20T03:11:05;18.20;99.90
54190;DHT22;40340;53.208;6.582;2022-08-20T03:13:31;18.20;99.90
54190;DHT22;40340;53.208;6.582;2022-08-20T03:15:59;18.20;99.90
54190;DHT22;40340;53.208;6.582;2022-08-20T03:18:32;18.10;99.90
54190;DHT22;40340;53.208;6.582;2022-08-20T03:20:58;18.20;99.90
54190;DHT22;40340;53.208;6.582;2022-08-20T03:23:24;18.20;99.90
54190;DHT22;40340;53.208;6.582;2022-08-20T03:25:49;18.20;99.90
54190;DHT22;40340;53.208;6.582;2022-08-20T03:28:16;18.10;99.90
54190;DHT22;40340;53.208;6.582;2022-08-20T03:30:43;18.10;99.90
54190;DHT22;40340;53.208;6.582;2022-08-20T03:33:09;18.10;99.90
54190;DHT22;40340;53.208;6.582;2022-08-20T03:35:36;18.10;99.90
54190;DHT22;40340;53.208;6.582;2022-08-20T03:38:09;18.10;99.90
54190;DHT22;40340;53.208;6.582;2022-08-20T03:40:36;18.10;99.90
54190;DHT22;40340;53.208;6.582;2022-08-20T03:43:03;18.10;99.90
54190;DHT22;40340;53.208;6.582;2022-08-20T03:45:29;18.10;99.90
54190;DHT22;40340;53.208;6.582;2022-08-20T03:47:54;18.00;99.90
54190;DHT22;40340;53.208;6.582;2022-08-20T03:50:23;18.00;99.90
54190;DHT22;40340;53.208;6.582;2022-08-20T03:52:50;17.90;99.90
54190;DHT22;40340;53.208;6.582;2022-08-20T03:55:16;18.00;99.90
54190;DHT22;40340;53.208;6.582;2022-08-20T03:57:48;18.00;99.90
54190;DHT22;40340;53.208;6.582;2022-08-20T04:00:16;18.00;99.90
54190;DHT22;40340;53.208;6.582;2022-08-20T04:02:45;18.00;99.90
54190;DHT22;40340;53.208;6.582;2022-08-20T04:05:11;18.00;99.90
54190;DHT22;40340;53.208;6.582;2022-08-20T04:07:38;18.00;99.90
54190;DHT22;40340;53.208;6.582;2022-08-20T04:10:05;18.00;99.90
54190;DHT22;40340;53.208;6.582;2022-08-20T04:12:33;18.00;99.90
54190;DHT22;40340;53.208;6.582;2022-08-20T04:14:59;17.80;99.90
54190;DHT22;40340;53.208;6.582;2022-08-20T04:17:25;17.90;99.90
54190;DHT22;40340;53.208;6.582;2022-08-20T04:19:51;17.90;99.90
54190;DHT22;40340;53.208;6.582;2022-08-20T04:22:17;17.80;99.90
54190;DHT22;40340;53.208;6.582;2022-08-20T04:24:42;17.90;99.90
54190;DHT22;40340;53.208;6.582;2022-08-20T04:27:09;17.90;99.90
54190;DHT22;40340;53.208;6.582;2022-08-20T04:29:35;17.90;99.90
54190;DHT22;40340;53.208;6.582;2022-08-20T04:32:04;17.90;99.90
54190;DHT22;40340;53.208;6.582;2022-08-20T04:34:31;17.90;99.90
54190;DHT22;40340;53.208;6.582;2022-08-20T04:36:56;17.90;99.90
54190;DHT22;40340;53.208;6.582;2022-08-20T04:39:22;17.80;99.90
54190;DHT22;40340;53.208;6.582;2022-08-20T04:41:48;17.90;99.90
54190;DHT22;40340;53.208;6.582;2022-08-20T04:44:13;17.90;99.90
54190;DHT22;40340;53.208;6.582;2022-08-20T04:46:39;17.90;99.90
54190;DHT22;40340;53.208;6.582;2022-08-20T04:49:05;17.90;99.90
54190;DHT22;40340;53.208;6.582;2022-08-20T04:51:31;17.90;99.90
54190;DHT22;40340;53.208;6.582;2022-08-20T04:53:59;17.90;99.90
54190;DHT22;40340;53.208;6.582;2022-08-20T04:56:26;17.90;99.90
54190;DHT22;40340;53.208;6.582;2022-08-20T04:58:55;17.90;99.90
54190;DHT22;40340;53.208;6.582;2022-08-20T05:01:22;17.90;99.90
54190;DHT22;40340;53.208;6.582;2022-08-20T05:03:51;17.80;99.90
54190;DHT22;40340;53.208;6.582;2022-08-20T05:06:20;17.80;99.90
54190;DHT22;40340;53.208;6.582;2022-08-20T05:08:46;17.80;99.90
54190;DHT22;40340;53.208;6.582;2022-08-20T05:11:12;17.80;99.90
54190;DHT22;40340;53.208;6.582;2022-08-20T05:13:41;17.80;99.90
54190;DHT22;40340;53.208;6.582;2022-08-20T05:16:07;17.80;99.90
54190;DHT22;40340;53.208;6.582;2022-08-20T05:18:33;17.80;99.90
54190;DHT22;40340;53.208;6.582;2022-08-20T05:21:00;17.80;99.90
54190;DHT22;40340;53.208;6.582;2022-08-20T05:23:32;17.70;99.90
54190;DHT22;40340;53.208;6.582;2022-08-20T05:25:58;17.70;99.90
54190;DHT22;40340;53.208;6.582;2022-08-20T05:28:26;17.80;99.90
54190;DHT22;40340;53.208;6.582;2022-08-20T05:30:57;17.70;99.90
54190;DHT22;40340;53.208;6.582;2022-08-20T05:33:23;17.70;99.90
54190;DHT22;40340;53.208;6.582;2022-08-20T05:35:50;17.60;99.90
54190;DHT22;40340;53.208;6.582;2022-08-20T05:38:19;17.60;99.90
54190;DHT22;40340;53.208;6.582;2022-08-20T05:40:46;17.60;99.90
54190;DHT22;40340;53.208;6.582;2022-08-20T05:43:12;17.60;99.90
54190;DHT22;40340;53.208;6.582;2022-08-20T05:45:39;17.60;99.90
54190;DHT22;40340;53.208;6.582;2022-08-20T05:48:07;17.60;99.90
54190;DHT22;40340;53.208;6.582;2022-08-20T05:50:33;17.50;99.90
54190;DHT22;40340;53.208;6.582;2022-08-20T05:53:00;17.50;99.90
54190;DHT22;40340;53.208;6.582;2022-08-20T05:55:26;17.50;99.90
54190;DHT22;40340;53.208;6.582;2022-08-20T05:58:00;17.60;99.90
54190;DHT22;40340;53.208;6.582;2022-08-20T06:00:27;17.60;99.90
54190;DHT22;40340;53.208;6.582;2022-08-20T06:02:53;17.60;99.90
54190;DHT22;40340;53.208;6.582;2022-08-20T06:05:38;17.60;99.90
54190;DHT22;40340;53.208;6.582;2022-08-20T06:08:08;17.70;99.90
54190;DHT22;40340;53.208;6.582;2022-08-20T06:10:35;17.70;99.90
54190;DHT22;40340;53.208;6.582;2022-08-20T06:13:01;17.70;99.90
54190;DHT22;40340;53.208;6.582;2022-08-20T06:15:28;17.70;99.90
54190;DHT22;40340;53.208;6.582;2022-08-20T06:17:55;17.70;99.90
54190;DHT22;40340;53.208;6.582;2022-08-20T06:20:20;17.80;99.90
54190;DHT22;40340;53.208;6.582;2022-08-20T06:22:47;17.90;99.90
54190;DHT22;40340;53.208;6.582;2022-08-20T06:25:13;17.90;99.90
54190;DHT22;40340;53.208;6.582;2022-08-20T06:27:40;18.00;99.90
54190;DHT22;40340;53.208;6.582;2022-08-20T06:30:08;18.00;99.90
54190;DHT22;40340;53.208;6.582;2022-08-20T06:32:34;18.00;99.90
54190;DHT22;40340;53.208;6.582;2022-08-20T06:35:04;18.10;99.90
54190;DHT22;40340;53.208;6.582;2022-08-20T06:37:31;18.20;99.90
54190;DHT22;40340;53.208;6.582;2022-08-20T06:40:11;18.20;99.90
54190;DHT22;40340;53.208;6.582;2022-08-20T06:42:37;18.30;99.90
54190;DHT22;40340;53.208;6.582;2022-08-20T06:45:13;18.30;99.90
54190;DHT22;40340;53.208;6.582;2022-08-20T06:47:43;18.40;99.90
54190;DHT22;40340;53.208;6.582;2022-08-20T06:50:12;18.50;99.90
54190;DHT22;40340;53.208;6.582;2022-08-20T06:52:39;18.50;99.90
54190;DHT22;40340;53.208;6.582;2022-08-20T06:55:07;18.60;99.90
54190;DHT22;40340;53.208;6.582;2022-08-20T06:57:34;18.60;99.90
54190;DHT22;40340;53.208;6.582;2022-08-20T07:00:00;18.70;99.90
54190;DHT22;40340;53.208;6.582;2022-08-20T07:02:26;18.70;99.90
54190;DHT22;40340;53.208;6.582;2022-08-20T07:04:51;18.80;99.90
54190;DHT22;40340;53.208;6.582;2022-08-20T07:07:20;18.80;99.90
54190;DHT22;40340;53.208;6.582;2022-08-20T07:09:45;19.00;99.90
54190;DHT22;40340;53.208;6.582;2022-08-20T07:12:12;19.00;99.90
54190;DHT22;40340;53.208;6.582;2022-08-20T07:14:38;19.00;99.90
54190;DHT22;40340;53.208;6.582;2022-08-20T07:17:04;19.10;99.90
54190;DHT22;40340;53.208;6.582;2022-08-20T07:19:31;19.20;99.90
54190;DHT22;40340;53.208;6.582;2022-08-20T07:21:57;19.20;99.90
54190;DHT22;40340;53.208;6.582;2022-08-20T07:24:23;19.30;99.90
54190;DHT22;40340;53.208;6.582;2022-08-20T07:26:49;19.30;99.90
54190;DHT22;40340;53.208;6.582;2022-08-20T07:29:17;19.40;99.90
54190;DHT22;40340;53.208;6.582;2022-08-20T07:31:43;19.50;99.90
54190;DHT22;40340;53.208;6.582;2022-08-20T07:34:27;19.50;99.90
54190;DHT22;40340;53.208;6.582;2022-08-20T07:36:52;19.60;99.90
54190;DHT22;40340;53.208;6.582;2022-08-20T07:39:18;19.70;99.90
54190;DHT22;40340;53.208;6.582;2022-08-20T07:41:44;19.60;99.90
54190;DHT22;40340;53.208;6.582;2022-08-20T07:44:27;19.60;99.90
54190;DHT22;40340;53.208;6.582;2022-08-20T07:46:53;19.50;99.90
54190;DHT22;40340;53.208;6.582;2022-08-20T07:49:19;19.50;99.90
54190;DHT22;40340;53.208;6.582;2022-08-20T07:51:44;19.40;99.90
54190;DHT22;40340;53.208;6.582;2022-08-20T07:54:10;19.40;99.90
54190;DHT22;40340;53.208;6.582;2022-08-20T07:56:35;19.40;99.90
54190;DHT22;40340;53.208;6.582;2022-08-20T07:59:01;19.40;99.90
54190;DHT22;40340;53.208;6.582;2022-08-20T08:01:30;19.50;99.90
54190;DHT22;40340;53.208;6.582;2022-08-20T08:03:57;19.40;99.90
54190;DHT22;40340;53.208;6.582;2022-08-20T08:06:24;19.50;99.90
54190;DHT22;40340;53.208;6.582;2022-08-20T08:08:50;19.60;99.90
54190;DHT22;40340;53.208;6.582;2022-08-20T08:11:16;19.70;99.90
54190;DHT22;40340;53.208;6.582;2022-08-20T08:13:44;19.70;99.90
54190;DHT22;40340;53.208;6.582;2022-08-20T08:16:11;19.90;99.90
54190;DHT22;40340;53.208;6.582;2022-08-20T08:18:41;19.90;99.90
54190;DHT22;40340;53.208;6.582;2022-08-20T08:21:08;20.00;99.90
54190;DHT22;40340;53.208;6.582;2022-08-20T08:23:39;20.10;99.90
54190;DHT22;40340;53.208;6.582;2022-08-20T08:26:12;20.20;99.90
54190;DHT22;40340;53.208;6.582;2022-08-20T08:28:39;20.20;99.90
54190;DHT22;40340;53.208;6.582;2022-08-20T08:31:05;20.30;99.90
54190;DHT22;40340;53.208;6.582;2022-08-20T08:33:31;20.30;99.90
54190;DHT22;40340;53.208;6.582;2022-08-20T08:38:23;20.30;99.90
54190;DHT22;40340;53.208;6.582;2022-08-20T08:40:50;20.30;99.90
54190;DHT22;40340;53.208;6.582;2022-08-20T08:43:18;20.20;99.90
54190;DHT22;40340;53.208;6.582;2022-08-20T08:45:46;20.30;99.90
54190;DHT22;40340;53.208;6.582;2022-08-20T08:48:17;20.30;99.90
54190;DHT22;40340;53.208;6.582;2022-08-20T08:50:44;20.40;99.90
54190;DHT22;40340;53.208;6.582;2022-08-20T08:53:24;20.50;99.90
54190;DHT22;40340;53.208;6.582;2022-08-20T08:55:50;20.60;99.90
54190;DHT22;40340;53.208;6.582;2022-08-20T08:58:16;20.70;99.90
54190;DHT22;40340;53.208;6.582;2022-08-20T09:00:41;20.70;99.90
54190;DHT22;40340;53.208;6.582;2022-08-20T09:03:08;20.90;99.90
54190;DHT22;40340;53.208;6.582;2022-08-20T09:08:03;20.90;99.90
54190;DHT22;40340;53.208;6.582;2022-08-20T09:10:31;21.00;99.90
54190;DHT22;40340;53.208;6.582;2022-08-20T09:12:56;21.00;99.90
54190;DHT22;40340;53.208;6.582;2022-08-20T09:15:22;20.90;99.90
54190;DHT22;40340;53.208;6.582;2022-08-20T09:17:48;20.90;99.90
54190;DHT22;40340;53.208;6.582;2022-08-20T09:20:13;21.10;99.90
54190;DHT22;40340;53.208;6.582;2022-08-20T09:22:39;21.40;99.90
54190;DHT22;40340;53.208;6.582;2022-08-20T09:25:05;21.90;99.90
54190;DHT22;40340;53.208;6.582;2022-08-20T09:27:30;22.80;99.90
54190;DHT22;40340;53.208;6.582;2022-08-20T09:29:56;23.70;99.90
54190;DHT22;40340;53.208;6.582;2022-08-20T09:32:22;24.30;99.90
54190;DHT22;40340;53.208;6.582;2022-08-20T09:34:49;24.00;98.20
54190;DHT22;40340;53.208;6.582;2022-08-20T09:37:22;23.70;98.30
54190;DHT22;40340;53.208;6.582;2022-08-20T09:39:48;24.00;99.60
54190;DHT22;40340;53.208;6.582;2022-08-20T09:42:17;24.20;97.70
54190;DHT22;40340;53.208;6.582;2022-08-20T09:44:43;24.30;97.20
54190;DHT22;40340;53.208;6.582;2022-08-20T09:47:09;24.80;96.30
54190;DHT22;40340;53.208;6.582;2022-08-20T09:49:34;25.20;95.60
54190;DHT22;40340;53.208;6.582;2022-08-20T09:52:02;25.80;95.10
54190;DHT22;40340;53.208;6.582;2022-08-20T09:54:27;26.20;94.90
54190;DHT22;40340;53.208;6.582;2022-08-20T09:56:57;26.90;95.80
54190;DHT22;40340;53.208;6.582;2022-08-20T09:59:23;27.40;96.00
54190;DHT22;40340;53.208;6.582;2022-08-20T10:01:49;27.80;94.00
54190;DHT22;40340;53.208;6.582;2022-08-20T10:04:14;27.80;93.20
54190;DHT22;40340;53.208;6.582;2022-08-20T10:06:40;27.90;93.00
54190;DHT22;40340;53.208;6.582;2022-08-20T10:09:06;27.00;91.50
54190;DHT22;40340;53.208;6.582;2022-08-20T10:11:31;26.30;91.70
54190;DHT22;40340;53.208;6.582;2022-08-20T10:13:57;25.90;90.80
54190;DHT22;40340;53.208;6.582;2022-08-20T10:16:22;26.10;90.00
54190;DHT22;40340;53.208;6.582;2022-08-20T10:18:48;26.10;89.50
54190;DHT22;40340;53.208;6.582;2022-08-20T10:21:14;26.10;86.90
54190;DHT22;40340;53.208;6.582;2022-08-20T10:23:39;26.30;90.00
54190;DHT22;40340;53.208;6.582;2022-08-20T10:26:06;25.80;88.90
54190;DHT22;40340;53.208;6.582;2022-08-20T10:28:31;25.60;91.30
54190;DHT22;40340;53.208;6.582;2022-08-20T10:30:57;25.40;91.50
54190;DHT22;40340;53.208;6.582;2022-08-20T10:33:22;25.20;91.00
54190;DHT22;40340;53.208;6.582;2022-08-20T10:35:48;24.80;91.60
54190;DHT22;40340;53.208;6.582;2022-08-20T10:38:13;24.60;92.50
54190;DHT22;40340;53.208;6.582;2022-08-20T10:40:39;24.70;92.20
54190;DHT22;40340;53.208;6.582;2022-08-20T10:43:04;24.50;91.80
54190;DHT22;40340;53.208;6.582;2022-08-20T10:45:30;24.20;90.30
54190;DHT22;40340;53.208;6.582;2022-08-20T10:47:57;24.00;90.90
54190;DHT22;40340;53.208;6.582;2022-08-20T10:50:23;24.00;92.30
54190;DHT22;40340;53.208;6.582;2022-08-20T10:52:48;24.00;91.10
54190;DHT22;40340;53.208;6.582;2022-08-20T10:55:14;24.00;92.00
54190;DHT22;40340;53.208;6.582;2022-08-20T10:57:40;23.90;92.60
54190;DHT22;40340;53.208;6.582;2022-08-20T11:00:06;23.90;93.80
54190;DHT22;40340;53.208;6.582;2022-08-20T11:02:34;23.80;93.00
54190;DHT22;40340;53.208;6.582;2022-08-20T11:05:00;23.80;93.00
54190;DHT22;40340;53.208;6.582;2022-08-20T11:07:27;23.90;93.60
54190;DHT22;40340;53.208;6.582;2022-08-20T11:09:52;24.10;93.40
54190;DHT22;40340;53.208;6.582;2022-08-20T11:12:19;24.40;93.80
54190;DHT22;40340;53.208;6.582;2022-08-20T11:14:45;24.60;94.00
54190;DHT22;40340;53.208;6.582;2022-08-20T11:17:11;24.60;93.40
54190;DHT22;40340;53.208;6.582;2022-08-20T11:19:38;24.60;93.80
54190;DHT22;40340;53.208;6.582;2022-08-20T11:22:04;24.60;93.80
54190;DHT22;40340;53.208;6.582;2022-08-20T11:24:30;24.50;93.20
54190;DHT22;40340;53.208;6.582;2022-08-20T11:26:56;24.50;93.30
54190;DHT22;40340;53.208;6.582;2022-08-20T11:29:22;24.60;94.00
54190;DHT22;40340;53.208;6.582;2022-08-20T11:31:49;24.50;93.50
54190;DHT22;40340;53.208;6.582;2022-08-20T11:34:15;24.60;92.20
54190;DHT22;40340;53.208;6.582;2022-08-20T11:36:40;24.30;93.10
54190;DHT22;40340;53.208;6.582;2022-08-20T11:39:06;24.20;93.00
54190;DHT22;40340;53.208;6.582;2022-08-20T11:41:31;24.30;93.90
54190;DHT22;40340;53.208;6.582;2022-08-20T11:43:57;24.40;92.00
54190;DHT22;40340;53.208;6.582;2022-08-20T11:46:22;24.30;92.70
54190;DHT22;40340;53.208;6.582;2022-08-20T11:48:48;24.40;92.70
54190;DHT22;40340;53.208;6.582;2022-08-20T11:51:13;24.60;92.00
54190;DHT22;40340;53.208;6.582;2022-08-20T11:53:39;24.80;92.00
54190;DHT22;40340;53.208;6.582;2022-08-20T11:56:04;25.00;92.50
54190;DHT22;40340;53.208;6.582;2022-08-20T11:58:30;25.10;91.00
54190;DHT22;40340;53.208;6.582;2022-08-20T12:00:58;25.30;90.60
54190;DHT22;40340;53.208;6.582;2022-08-20T12:03:23;25.60;90.10
54190;DHT22;40340;53.208;6.582;2022-08-20T12:05:49;25.80;91.20
54190;DHT22;40340;53.208;6.582;2022-08-20T12:08:14;26.10;91.40
54190;DHT22;40340;53.208;6.582;2022-08-20T12:10:40;26.20;90.30
54190;DHT22;40340;53.208;6.582;2022-08-20T12:13:06;26.00;90.80
54190;DHT22;40340;53.208;6.582;2022-08-20T12:15:32;26.00;89.90
54190;DHT22;40340;53.208;6.582;2022-08-20T12:17:58;25.80;90.20
54190;DHT22;40340;53.208;6.582;2022-08-20T12:20:24;25.60;90.40
54190;DHT22;40340;53.208;6.582;2022-08-20T12:22:49;25.40;90.20
54190;DHT22;40340;53.208;6.582;2022-08-20T12:25:15;25.40;90.60
54190;DHT22;40340;53.208;6.582;2022-08-20T12:27:40;25.40;90.20
54190;DHT22;40340;53.208;6.582;2022-08-20T12:30:07;25.50;89.30
54190;DHT22;40340;53.208;6.582;2022-08-20T12:32:33;25.80;90.70
54190;DHT22;40340;53.208;6.582;2022-08-20T12:34:59;26.00;90.10
54190;DHT22;40340;53.208;6.582;2022-08-20T12:37:26;26.30;89.50
54190;DHT22;40340;53.208;6.582;2022-08-20T12:39:54;26.40;86.50
54190;DHT22;40340;53.208;6.582;2022-08-20T12:42:20;26.70;87.60
54190;DHT22;40340;53.208;6.582;2022-08-20T12:44:45;26.20;84.30
54190;DHT22;40340;53.208;6.582;2022-08-20T12:47:19;25.90;83.90
54190;DHT22;40340;53.208;6.582;2022-08-20T12:49:49;26.00;85.20
54190;DHT22;40340;53.208;6.582;2022-08-20T12:52:16;26.20;83.90
54190;DHT22;40340;53.208;6.582;2022-08-20T12:54:42;26.60;85.20
54190;DHT22;40340;53.208;6.582;2022-08-20T12:57:15;26.60;83.30
54190;DHT22;40340;53.208;6.582;2022-08-20T12:59:41;26.50;84.80
54190;DHT22;40340;53.208;6.582;2022-08-20T13:02:06;26.10;84.70
54190;DHT22;40340;53.208;6.582;2022-08-20T13:04:32;25.70;84.70
54190;DHT22;40340;53.208;6.582;2022-08-20T13:07:00;25.50;85.30
54190;DHT22;40340;53.208;6.582;2022-08-20T13:09:26;25.60;88.70
54190;DHT22;40340;53.208;6.582;2022-08-20T13:11:51;25.20;86.10
54190;DHT22;40340;53.208;6.582;2022-08-20T13:14:17;25.20;86.10
54190;DHT22;40340;53.208;6.582;2022-08-20T13:16:42;25.20;85.70
54190;DHT22;40340;53.208;6.582;2022-08-20T13:19:08;25.10;86.40
54190;DHT22;40340;53.208;6.582;2022-08-20T13:21:33;25.10;83.20
54190;DHT22;40340;53.208;6.582;2022-08-20T13:24:01;25.30;83.50
54190;DHT22;40340;53.208;6.582;2022-08-20T13:26:26;25.70;81.20
54190;DHT22;40340;53.208;6.582;2022-08-20T13:28:52;25.70;82.90
54190;DHT22;40340;53.208;6.582;2022-08-20T13:31:17;26.00;83.80
54190;DHT22;40340;53.208;6.582;2022-08-20T13:33:43;26.50;83.50
54190;DHT22;40340;53.208;6.582;2022-08-20T13:36:08;26.50;82.40
54190;DHT22;40340;53.208;6.582;2022-08-20T13:38:34;26.50;85.00
54190;DHT22;40340;53.208;6.582;2022-08-20T13:40:59;26.30;82.20
54190;DHT22;40340;53.208;6.582;2022-08-20T13:43:24;26.00;84.40
54190;DHT22;40340;53.208;6.582;2022-08-20T13:45:50;25.80;85.10
54190;DHT22;40340;53.208;6.582;2022-08-20T13:48:15;25.80;85.80
54190;DHT22;40340;53.208;6.582;2022-08-20T13:50:41;25.50;85.80
54190;DHT22;40340;53.208;6.582;2022-08-20T13:53:07;25.40;86.20
54190;DHT22;40340;53.208;6.582;2022-08-20T13:55:32;25.60;90.10
54190;DHT22;40340;53.208;6.582;2022-08-20T13:58:02;25.50;86.60
54190;DHT22;40340;53.208;6.582;2022-08-20T14:00:29;25.60;86.10
54190;DHT22;40340;53.208;6.582;2022-08-20T14:02:55;25.80;87.60
54190;DHT22;40340;53.208;6.582;2022-08-20T14:05:21;26.00;87.80
54190;DHT22;40340;53.208;6.582;2022-08-20T14:07:47;26.20;85.30
54190;DHT22;40340;53.208;6.582;2022-08-20T14:10:16;26.20;83.50
54190;DHT22;40340;53.208;6.582;2022-08-20T14:12:42;26.00;82.60
54190;DHT22;40340;53.208;6.582;2022-08-20T14:15:07;25.80;86.60
54190;DHT22;40340;53.208;6.582;2022-08-20T14:17:40;25.80;85.30
54190;DHT22;40340;53.208;6.582;2022-08-20T14:20:08;25.80;87.50
54190;DHT22;40340;53.208;6.582;2022-08-20T14:22:34;25.70;85.30
54190;DHT22;40340;53.208;6.582;2022-08-20T14:24:59;25.70;84.10
54190;DHT22;40340;53.208;6.582;2022-08-20T14:27:28;25.70;83.40
54190;DHT22;40340;53.208;6.582;2022-08-20T14:29:54;25.60;82.70
54190;DHT22;40340;53.208;6.582;2022-08-20T14:32:19;25.30;81.70
54190;DHT22;40340;53.208;6.582;2022-08-20T14:34:45;25.30;82.30
54190;DHT22;40340;53.208;6.582;2022-08-20T14:37:23;25.20;83.40
54190;DHT22;40340;53.208;6.582;2022-08-20T14:39:51;25.20;83.60
54190;DHT22;40340;53.208;6.582;2022-08-20T14:42:16;25.10;84.40
54190;DHT22;40340;53.208;6.582;2022-08-20T14:44:42;25.10;85.10
54190;DHT22;40340;53.208;6.582;2022-08-20T14:47:09;25.10;85.70
54190;DHT22;40340;53.208;6.582;2022-08-20T14:49:35;25.10;85.60
54190;DHT22;40340;53.208;6.582;2022-08-20T14:52:00;25.30;84.70
54190;DHT22;40340;53.208;6.582;2022-08-20T14:54:26;25.20;84.00
54190;DHT22;40340;53.208;6.582;2022-08-20T14:56:51;25.20;83.50
54190;DHT22;40340;53.208;6.582;2022-08-20T14:59:17;25.20;82.60
54190;DHT22;40340;53.208;6.582;2022-08-20T15:01:42;25.20;84.50
54190;DHT22;40340;53.208;6.582;2022-08-20T15:04:08;25.00;84.10
54190;DHT22;40340;53.208;6.582;2022-08-20T15:06:33;25.00;84.60
54190;DHT22;40340;53.208;6.582;2022-08-20T15:08:59;25.00;83.10
54190;DHT22;40340;53.208;6.582;2022-08-20T15:11:24;25.00;84.30
54190;DHT22;40340;53.208;6.582;2022-08-20T15:13:50;25.00;84.30
54190;DHT22;40340;53.208;6.582;2022-08-20T15:16:15;24.90;84.20
54190;DHT22;40340;53.208;6.582;2022-08-20T15:18:41;24.80;83.80
54190;DHT22;40340;53.208;6.582;2022-08-20T15:21:07;24.70;84.50
54190;DHT22;40340;53.208;6.582;2022-08-20T15:23:33;24.70;85.60
54190;DHT22;40340;53.208;6.582;2022-08-20T15:25:58;24.60;84.80
54190;DHT22;40340;53.208;6.582;2022-08-20T15:28:24;24.80;86.70
54190;DHT22;40340;53.208;6.582;2022-08-20T15:30:49;24.70;87.50
54190;DHT22;40340;53.208;6.582;2022-08-20T15:33:15;24.70;86.70
54190;DHT22;40340;53.208;6.582;2022-08-20T15:35:40;24.60;85.50
54190;DHT22;40340;53.208;6.582;2022-08-20T15:38:06;24.60;87.40